createdAt,value
2022-12-03T00:00:45.053Z,102402.88
2022-12-03T00:04:46.741Z,102400.31
2022-12-03T00:08:48.412Z,102397.69
2022-12-03T00:12:50.094Z,102398.59
2022-12-03T00:16:51.769Z,102390.84
2022-12-03T00:20:53.466Z,102391.75
2022-12-03T00:24:55.407Z,102387.41
2022-12-03T00:28:57.976Z,102381.38
2022-12-03T00:32:59.643Z,102376.97
2022-12-03T00:37:03.105Z,102371.75
2022-12-03T00:41:04.952Z,102374.47
2022-12-03T00:45:07.132Z,102375.31
2022-12-03T00:49:09.077Z,102381.41
2022-12-03T00:53:10.757Z,102375.31
2022-12-03T00:57:12.480Z,102382.28
2022-12-03T01:01:15.720Z,102376.88
2022-12-03T01:05:18.327Z,102377.72
2022-12-03T01:09:20.143Z,102368.88
2022-12-03T01:13:21.825Z,102371.53
2022-12-03T01:17:23.557Z,102355.81
2022-12-03T01:21:25.247Z,102357.47
2022-12-03T01:25:26.963Z,102367.91
2022-12-03T01:29:28.636Z,102360.00
2022-12-03T01:33:30.468Z,102351.16
2022-12-03T01:37:32.226Z,102359.25
2022-12-03T01:41:35.051Z,102359.38
2022-12-03T01:45:36.787Z,102348.84
2022-12-03T01:49:53.171Z,102344.34
2022-12-03T01:53:54.836Z,102350.44
2022-12-03T01:58:00.914Z,102341.72
2022-12-03T02:02:24.245Z,102348.53
2022-12-03T02:06:30.109Z,102346.84
2022-12-03T02:10:36.167Z,102343.44
2022-12-03T02:14:37.944Z,102345.28
2022-12-03T02:18:39.676Z,102340.94
2022-12-03T02:23:28.701Z,102344.50
2022-12-03T02:27:30.528Z,102343.56
2022-12-03T02:31:33.207Z,102349.69
2022-12-03T02:35:37.324Z,102346.97
2022-12-03T02:39:43.052Z,102339.06
2022-12-03T02:43:44.677Z,102339.91
2022-12-03T02:47:51.524Z,102326.63
2022-12-03T02:51:53.700Z,102333.66
2022-12-03T02:55:59.153Z,102324.84
2022-12-03T03:00:00.953Z,102317.81
2022-12-03T03:04:03.393Z,102317.72
2022-12-03T03:08:06.584Z,102322.06
2022-12-03T03:12:09.743Z,102317.63
2022-12-03T03:16:11.581Z,102300.84
2022-12-03T03:20:13.964Z,102303.34
2022-12-03T03:24:16.488Z,102305.00
2022-12-03T03:28:18.917Z,102299.41
2022-12-03T03:32:21.091Z,102302.00
2022-12-03T03:36:23.420Z,102301.81
2022-12-03T03:40:26.205Z,102299.84
2022-12-03T03:44:29.421Z,102294.56
2022-12-03T03:48:31.977Z,102303.25
2022-12-03T03:52:34.486Z,102292.66
2022-12-03T03:56:36.363Z,102294.25
2022-12-03T04:00:38.190Z,102284.41
2022-12-03T04:04:39.965Z,102278.31
2022-12-03T04:08:41.752Z,102276.31
2022-12-03T04:12:55.546Z,102273.44
2022-12-03T04:16:57.244Z,102265.44
2022-12-03T04:21:18.972Z,102269.72
2022-12-03T04:25:39.316Z,102261.72
2022-12-03T04:29:41.126Z,102266.00
2022-12-03T04:34:01.525Z,102255.38
2022-12-03T04:38:03.293Z,102254.47
2022-12-03T04:42:06.306Z,102246.47
2022-12-03T04:46:08.071Z,102252.59
2022-12-03T04:50:10.351Z,102245.47
2022-12-03T04:54:12.110Z,102242.84
2022-12-03T04:58:13.839Z,102245.31
2022-12-03T05:02:15.629Z,102250.59
2022-12-03T05:06:17.477Z,102240.91
2022-12-03T05:10:19.311Z,102244.47
2022-12-03T05:14:20.985Z,102250.59
2022-12-03T05:18:22.694Z,102247.03
2022-12-03T05:22:24.393Z,102235.63
2022-12-03T05:26:26.178Z,102233.94
2022-12-03T05:30:28.072Z,102233.94
2022-12-03T05:34:31.685Z,102235.69
2022-12-03T05:38:33.511Z,102233.94
2022-12-03T05:42:53.823Z,102225.13
2022-12-03T05:46:55.539Z,102232.13
2022-12-03T05:50:57.197Z,102227.63
2022-12-03T05:54:58.962Z,102215.47
2022-12-03T05:59:00.978Z,102215.53
2022-12-03T06:03:02.971Z,102218.16
2022-12-03T06:07:06.632Z,102209.31
2022-12-03T06:11:11.412Z,102210.25
2022-12-03T06:15:14.760Z,102210.25
2022-12-03T06:19:16.477Z,102199.72
2022-12-03T06:23:18.130Z,102189.16
2022-12-03T06:27:20.580Z,102193.50
2022-12-03T06:31:23.253Z,102193.50
2022-12-03T06:35:25.077Z,102197.06
2022-12-03T06:39:27.262Z,102186.53
2022-12-03T06:43:30.999Z,102190.97
2022-12-03T06:47:32.716Z,102195.38
2022-12-03T06:51:34.538Z,102194.44
2022-12-03T06:55:36.430Z,102191.81
2022-12-03T06:59:38.215Z,102182.97
2022-12-03T07:03:39.997Z,102191.06
2022-12-03T07:07:41.760Z,102193.75
2022-12-03T07:11:43.571Z,102196.47
2022-12-03T07:15:45.277Z,102204.22
2022-12-03T07:19:47.038Z,102196.47
2022-12-03T07:23:48.769Z,102197.31
2022-12-03T07:27:50.680Z,102207.06
2022-12-03T07:31:52.480Z,102208.00
2022-12-03T07:35:54.285Z,102196.47
2022-12-03T07:39:55.986Z,102200.00
2022-12-03T07:43:57.671Z,102214.13
2022-12-03T07:47:59.387Z,102207.06
2022-12-03T07:52:01.119Z,102201.91
2022-12-03T07:56:06.434Z,102194.91
2022-12-03T08:00:08.516Z,102201.03
2022-12-03T08:04:11.458Z,102192.19
2022-12-03T08:08:13.314Z,102193.97
2022-12-03T08:12:17.539Z,102202.84
2022-12-03T08:16:22.088Z,102196.78
2022-12-03T08:20:26.533Z,102206.56
2022-12-03T08:24:29.326Z,102202.19
2022-12-03T08:28:31.998Z,102193.53
2022-12-03T08:32:33.687Z,102192.59
2022-12-03T08:36:36.568Z,102190.81
2022-12-03T08:40:45.069Z,102185.53
2022-12-03T08:44:47.585Z,102180.25
2022-12-03T08:48:49.777Z,102172.28
2022-12-03T08:52:53.442Z,102158.16
2022-12-03T08:56:55.435Z,102167.00
2022-12-03T09:01:02.975Z,102180.25
2022-12-03T09:05:20.151Z,102177.56
2022-12-03T09:09:23.049Z,102169.66
2022-12-03T09:13:24.722Z,102179.16
2022-12-03T09:17:26.671Z,102158.31
2022-12-03T09:21:28.379Z,102165.44
2022-12-03T09:25:32.110Z,102170.72
2022-12-03T09:29:33.922Z,102165.63
2022-12-03T09:33:35.826Z,102162.97
2022-12-03T09:37:37.689Z,102165.63
2022-12-03T09:41:39.520Z,102169.16
2022-12-03T09:45:41.399Z,102162.34
2022-12-03T09:49:43.489Z,102169.34
2022-12-03T09:53:46.343Z,102171.09
2022-12-03T09:57:48.870Z,102172.88
2022-12-03T10:01:51.985Z,102164.97
2022-12-03T10:05:54.722Z,102173.72
2022-12-03T10:09:56.584Z,102166.91
2022-12-03T10:13:58.860Z,102167.00
2022-12-03T10:18:05.985Z,102160.94
2022-12-03T10:22:07.672Z,102167.06
2022-12-03T10:26:09.531Z,102160.94
2022-12-03T10:30:28.847Z,102157.41
2022-12-03T10:34:36.467Z,102154.78
2022-12-03T10:38:38.190Z,102144.97
2022-12-03T10:42:41.049Z,102152.13
2022-12-03T10:46:43.412Z,102143.53
2022-12-03T10:50:56.430Z,102135.63
2022-12-03T10:54:58.394Z,102130.56
2022-12-03T10:59:00.074Z,102126.56
2022-12-03T11:03:01.835Z,102116.88
2022-12-03T11:07:12.243Z,102123.13
2022-12-03T11:11:27.644Z,102119.72
2022-12-03T11:15:44.297Z,102106.53
2022-12-03T11:19:47.435Z,102105.63
2022-12-03T11:23:52.134Z,102105.47
2022-12-03T11:28:32.994Z,102091.53
2022-12-03T11:32:43.669Z,102099.56
2022-12-03T11:37:10.319Z,102091.66
2022-12-03T11:41:19.688Z,102080.53
2022-12-03T11:45:39.809Z,102080.69
2022-12-03T11:49:47.109Z,102084.31
2022-12-03T11:53:50.454Z,102078.28
2022-12-03T11:57:59.424Z,102081.91
2022-12-03T12:02:01.090Z,102075.56
2022-12-03T12:06:10.787Z,102063.47
2022-12-03T12:10:12.540Z,102073.53
2022-12-03T12:14:14.364Z,102063.16
2022-12-03T12:18:39.114Z,102061.31
2022-12-03T12:22:40.823Z,102050.59
2022-12-03T12:26:51.393Z,102044.50
2022-12-03T12:30:53.092Z,102036.53
2022-12-03T12:35:00.294Z,102043.50
2022-12-03T12:39:02.110Z,102032.88
2022-12-03T12:43:18.911Z,102036.38
2022-12-03T12:47:26.848Z,102028.50
2022-12-03T12:51:28.690Z,102034.81
2022-12-03T12:55:30.465Z,102031.56
2022-12-03T12:59:32.685Z,102025.53
2022-12-03T13:03:38.077Z,102025.59
2022-12-03T13:07:41.508Z,102023.06
2022-12-03T13:11:46.851Z,102020.56
2022-12-03T13:15:52.287Z,102021.50
2022-12-03T13:20:03.651Z,102016.31
2022-12-03T13:24:36.687Z,102008.34
2022-12-03T13:28:41.375Z,102019.50
2022-12-03T13:32:43.873Z,102017.78
2022-12-03T13:36:50.547Z,102017.16
2022-12-03T13:41:01.152Z,102006.00
2022-12-03T13:45:08.982Z,102011.44
2022-12-03T13:49:21.049Z,101998.25
2022-12-03T13:53:28.050Z,102004.47
2022-12-03T13:57:29.742Z,101987.88
2022-12-03T14:01:31.497Z,101990.66
2022-12-03T14:05:33.254Z,101978.53
2022-12-03T14:09:35.061Z,101977.84
2022-12-03T14:13:36.700Z,101975.19
2022-12-03T14:17:38.443Z,101980.53
2022-12-03T14:21:40.272Z,101970.22
2022-12-03T14:25:44.055Z,101969.47
2022-12-03T14:29:45.818Z,101964.97
2022-12-03T14:33:47.571Z,101965.13
2022-12-03T14:37:49.223Z,101954.91
2022-12-03T14:42:09.288Z,101958.63
2022-12-03T14:46:11.000Z,101957.84
2022-12-03T14:50:14.562Z,101967.44
2022-12-03T14:54:16.363Z,101966.53
2022-12-03T14:58:18.174Z,101969.84
2022-12-03T15:02:19.936Z,101958.44
2022-12-03T15:06:21.680Z,101957.47
2022-12-03T15:10:23.428Z,101961.03
2022-12-03T15:14:25.195Z,101962.66
2022-12-03T15:18:27.010Z,101965.44
2022-12-03T15:22:28.648Z,101961.31
2022-12-03T15:26:30.547Z,101958.91
2022-12-03T15:30:35.360Z,101959.06
2022-12-03T15:34:37.058Z,101972.22
2022-12-03T15:38:38.725Z,101969.72
2022-12-03T15:42:40.424Z,101971.59
2022-12-03T15:46:42.135Z,101971.75
2022-12-03T15:50:43.926Z,101967.41
2022-12-03T15:54:46.218Z,101957.97
2022-12-03T15:58:47.948Z,101969.56
2022-12-03T16:02:53.077Z,101954.69
2022-12-03T16:06:55.001Z,101970.56
2022-12-03T16:10:56.681Z,101965.38
2022-12-03T16:14:58.483Z,101955.53
2022-12-03T16:19:00.250Z,101953.00
2022-12-03T16:23:01.993Z,101949.53
2022-12-03T16:27:03.880Z,101948.75
2022-12-03T16:31:05.857Z,101947.66
2022-12-03T16:35:08.001Z,101949.28
2022-12-03T16:39:09.768Z,101945.72
2022-12-03T16:43:11.521Z,101944.03
2022-12-03T16:47:13.232Z,101946.53
2022-12-03T16:51:15.454Z,101940.34
2022-12-03T16:55:17.227Z,101942.13
2022-12-03T16:59:18.934Z,101948.22
2022-12-03T17:03:21.632Z,101949.00
2022-12-03T17:07:23.401Z,101947.13
2022-12-03T17:11:25.169Z,101947.00
2022-12-03T17:15:26.858Z,101946.28
2022-12-03T17:19:28.554Z,101950.78
2022-12-03T17:23:30.394Z,101949.28
2022-12-03T17:27:32.093Z,101940.00
2022-12-03T17:31:40.031Z,101951.31
2022-12-03T17:35:45.609Z,101950.59
2022-12-03T17:39:47.295Z,101945.50
2022-12-03T17:43:49.137Z,101949.91
2022-12-03T17:47:50.836Z,101947.50
2022-12-03T17:51:52.636Z,101952.66
2022-12-03T17:55:54.460Z,101944.78
2022-12-03T17:59:56.616Z,101936.09
2022-12-03T18:03:58.668Z,101931.72
2022-12-03T18:08:00.582Z,101940.47
2022-12-03T18:12:02.453Z,101924.69
2022-12-03T18:16:04.430Z,101924.81
2022-12-03T18:20:06.988Z,101913.50
2022-12-03T18:24:09.371Z,101906.56
2022-12-03T18:28:11.145Z,101918.94
2022-12-03T18:32:27.559Z,101900.59
2022-12-03T18:36:34.881Z,101905.16
2022-12-03T18:40:37.203Z,101912.09
2022-12-03T18:44:38.938Z,101902.66
2022-12-03T18:48:45.619Z,101915.19
2022-12-03T18:52:47.304Z,101909.94
2022-12-03T18:56:48.928Z,101901.97
2022-12-03T19:00:50.671Z,101905.47
2022-12-03T19:04:52.414Z,101919.47
2022-12-03T19:08:54.569Z,101916.84
2022-12-03T19:12:56.302Z,101915.91
2022-12-03T19:16:58.002Z,101914.97
2022-12-03T19:20:59.935Z,101915.66
2022-12-03T19:25:02.350Z,101917.53
2022-12-03T19:29:04.423Z,101921.25
2022-12-03T19:33:06.114Z,101909.13
2022-12-03T19:37:07.861Z,101911.00
2022-12-03T19:41:11.661Z,101905.03
2022-12-03T19:45:13.411Z,101904.34
2022-12-03T19:49:16.809Z,101905.31
2022-12-03T19:53:20.234Z,101897.66
2022-12-03T19:57:23.609Z,101894.09
2022-12-03T20:01:28.418Z,101891.44
2022-12-03T20:05:33.307Z,101894.94
2022-12-03T20:09:35.216Z,101902.78
2022-12-03T20:13:37.024Z,101902.78
2022-12-03T20:17:38.724Z,101898.28
2022-12-03T20:21:41.211Z,101897.38
2022-12-03T20:25:42.871Z,101895.66
2022-12-03T20:29:44.696Z,101896.59
2022-12-03T20:33:49.656Z,101900.06
2022-12-03T20:37:51.325Z,101893.19
2022-12-03T20:41:53.029Z,101869.69
2022-12-03T20:45:59.547Z,101874.16
2022-12-03T20:50:04.510Z,101861.09
2022-12-03T20:54:06.256Z,101865.50
2022-12-03T20:58:07.949Z,101861.88
2022-12-03T21:02:10.587Z,101855.72
2022-12-03T21:06:13.422Z,101864.50
2022-12-03T21:10:33.710Z,101857.50
2022-12-03T21:14:35.949Z,101852.38
2022-12-03T21:18:37.781Z,101855.16
2022-12-03T21:22:39.448Z,101852.56
2022-12-03T21:26:41.709Z,101848.19
2022-12-03T21:30:43.470Z,101851.72
2022-12-03T21:34:45.231Z,101837.88
2022-12-03T21:38:48.289Z,101845.84
2022-12-03T21:42:50.054Z,101847.50
2022-12-03T21:47:11.220Z,101851.72
2022-12-03T21:51:14.769Z,101870.97
2022-12-03T21:55:16.581Z,101863.09
2022-12-03T21:59:18.308Z,101857.78
2022-12-03T22:03:20.152Z,101862.88
2022-12-03T22:07:24.666Z,101863.09
2022-12-03T22:11:26.558Z,101864.84
2022-12-03T22:15:28.397Z,101855.91
2022-12-03T22:19:30.419Z,101848.81
2022-12-03T22:23:32.657Z,101859.31
2022-12-03T22:27:34.325Z,101853.09
2022-12-03T22:31:36.123Z,101852.25
2022-12-03T22:35:37.822Z,101850.50
2022-12-03T22:39:39.673Z,101858.41
2022-12-03T22:43:41.407Z,101852.06
2022-12-03T22:47:43.177Z,101850.22
2022-12-03T22:51:46.295Z,101855.50
2022-12-03T22:55:59.790Z,101858.16
2022-12-03T23:00:01.846Z,101857.31
2022-12-03T23:04:05.097Z,101849.63
2022-12-03T23:08:08.645Z,101844.63
2022-12-03T23:12:10.511Z,101844.88
2022-12-03T23:16:24.582Z,101837.69
2022-12-03T23:20:27.128Z,101836.91
2022-12-03T23:24:29.430Z,101822.78
2022-12-03T23:28:32.626Z,101827.09
2022-12-03T23:32:35.911Z,101821.97
2022-12-03T23:36:37.675Z,101814.47
2022-12-03T23:40:42.355Z,101820.53
2022-12-03T23:44:48.227Z,101814.34
2022-12-03T23:48:50.893Z,101813.47
2022-12-03T23:52:53.038Z,101827.47
2022-12-03T23:56:55.001Z,101831.78
